Date,TemperatureHighF,TemperatureAvgF,TemperatureLowF,DewpointHighF,DewpointAvgF,DewpointLowF,HumidityHigh,HumidityAvg,HumidityLow,PressureMaxIn,PressureMinIn,WindSpeedMaxMPH,WindSpeedAvgMPH,GustSpeedMaxMPH,PrecipitationSumIn
2013-5-1,75.0,54.0,36.5,46.1,33.7,19.5,72,47,36,29.94,29.80,16,4,16,0.00
2013-5-2,77.5,58.5,43.5,47.6,38.5,30.0,79,50,35,29.91,29.77,17,3,17,0.00
2013-5-3,71.4,55.9,41.0,43.7,35.2,27.8,67,47,37,29.91,29.80,26,6,26,0.00
2013-5-4,74.1,54.9,40.3,45.5,36.2,28.6,76,51,35,29.80,29.68,25,5,25,0.00
2013-5-5,70.9,50.4,36.5,43.2,36.6,28.6,100,63,37,29.74,29.65,17,4,17,0.00
2013-5-6,74.3,55.8,43.0,47.7,39.2,33.9,100,56,36,29.71,29.59,12,2,12,0.00
2013-5-7,79.2,60.4,45.9,54.8,48.6,40.4,100,70,40,29.59,29.53,12,2,12,0.00
2013-5-8,70.7,61.1,55.4,62.2,56.5,50.9,100,87,52,29.59,29.44,21,2,21,0.00
2013-5-9,70.2,59.0,55.9,63.1,57.3,49.7,100,95,52,29.44,29.26,8,0,8,0.28
2013-5-10,85.6,65.6,53.8,62.3,51.8,44.8,100,67,35,29.38,29.32,15,1,15,0.00
2013-5-11,67.8,59.1,55.6,62.8,57.8,49.2,100,96,54,29.35,29.09,15,1,15,0.43
2013-5-12,74.1,61.8,50.0,63.3,49.6,26.9,100,69,39,29.23,29.00,16,2,16,0.00
2013-5-13,64.8,51.4,40.6,38.6,29.3,22.7,59,43,36,29.44,29.23,21,3,21,0.00
2013-5-14,62.4,49.4,37.9,37.2,28.1,23.0,59,44,36,29.47,29.38,12,2,12,0.00
2013-5-15,64.0,52.6,43.3,53.4,41.6,31.2,100,69,38,29.50,29.09,15,2,15,0.00
2013-5-16,84.7,64.9,50.7,53.2,45.9,37.9,100,55,33,29.21,29.09,16,2,16,0.00
2013-5-17,77.0,61.5,50.4,47.3,39.6,33.6,68,45,35,29.65,29.21,19,3,19,0.00
2013-5-18,75.4,58.6,46.9,47.8,42.1,38.0,87,57,35,29.77,29.65,12,1,12,0.00
2013-5-19,67.5,56.5,50.2,57.2,47.0,40.4,100,73,43,29.80,29.65,10,0,10,0.31
2013-5-20,80.8,65.8,57.0,67.3,58.8,54.1,100,82,42,29.65,29.35,13,0,13,0.12
2013-5-21,88.2,71.4,59.5,70.3,59.7,48.6,100,71,39,29.38,29.26,8,0,8,0.00
2013-5-22,80.2,62.2,53.1,62.1,54.5,48.9,100,79,44,29.35,29.26,12,1,12,0.00
2013-5-23,69.8,64.9,61.5,69.4,63.8,58.5,100,96,74,29.35,29.21,13,2,13,0.75
2013-5-24,73.9,62.4,47.7,70.7,56.8,37.9,100,84,53,29.23,29.06,17,3,17,0.35
2013-5-25,50.9,47.3,42.3,49.5,43.7,33.5,100,88,66,29.21,29.15,23,6,23,0.16
2013-5-26,61.9,50.4,42.3,39.6,34.8,32.3,75,56,41,29.56,29.18,22,6,23,0.04
2013-5-27,82.4,59.1,43.5,51.1,38.8,31.6,71,49,34,29.62,29.50,17,1,17,0.00
2013-5-28,78.8,59.6,46.9,58.1,43.8,35.8,100,59,35,29.65,29.59,6,0,6,0.00
2013-5-29,75.6,64.1,57.2,66.2,58.0,52.2,100,83,48,29.59,29.44,17,0,17,0.08
2013-5-30,93.4,75.1,61.3,73.4,60.6,53.2,100,66,36,29.53,29.44,8,0,9,0.04
2013-5-31,95.2,77.8,65.7,63.9,57.4,52.2,81,51,34,29.53,29.41,0,0,0,0.00